Friday, January 18, 2019, 2:37 AM EST
Back to Local

KFWN, Sussex Airport

Location: Sussex, NJ, United States Lat: 41.2
Local Time: 2:37 AM EST ( 7:37 GMT) Lon: -74.633
Time Zone: US/Eastern Elev: 419 ft

Show me the last for .
Show Decoded

2019-01-18 01:53 METAR KFWN 180653Z AUTO 03003KT 3SM -SN BR OVC048 M04/M05 A3016 RMK AO2 SLP219
                 P0001 T10391050 $ =
2019-01-18 01:41 METAR KFWN 180641Z AUTO 03003KT 2 1/2SM -SN BR OVC049 M04/M05 A3017 RMK AO2
                 P0001 T10391050 $ =
2019-01-18 01:22 METAR KFWN 180622Z AUTO 00000KT 3SM -SN BR BKN031 OVC050 M04/M05 A3017 RMK AO2
                 P0001 T10391050 $ =
2019-01-18 01:15 METAR KFWN 180615Z AUTO 00000KT 2 1/2SM -SN BR BKN027 OVC050 M04/M05 A3017 RMK
                 AO2 P0001 T10391050 $ =
2019-01-18 01:03 METAR KFWN 180603Z AUTO 00000KT 1 3/4SM -SN BR OVC026 M04/M05 A3017 RMK AO2
                 P0000 T10391050 $ =
2019-01-18 00:53 METAR KFWN 180553Z AUTO 00000KT 1 1/4SM -SN BR OVC024 M04/M06 A3018 RMK AO2
                 SLP224 P0002 60003 T10391056 11022 21044 58015 $ =
2019-01-18 00:40 METAR KFWN 180540Z AUTO 00000KT 1 1/4SM -SN BR OVC028 M04/M05 A3018 RMK AO2
                 P0002 T10391050 $ =
2019-01-18 00:33 METAR KFWN 180533Z AUTO 00000KT 1 3/4SM -SN BR OVC030 M04/M05 A3018 RMK AO2
                 P0002 T10391050 $ =
2019-01-18 00:24 METAR KFWN 180524Z AUTO 00000KT 2SM -SN BR OVC028 M04/M05 A3019 RMK AO2 P0002
                 T10391050 $ =
2019-01-18 00:17 METAR KFWN 180517Z AUTO 00000KT 1 3/4SM -SN BR OVC024 M04/M05 A3019 RMK AO2
                 P0001 T10391050 $ =
2019-01-18 00:05 METAR KFWN 180505Z AUTO 00000KT 1SM -SN BR VV017 M04/M05 A3020 RMK AO2 P0001
                 T10391050 $ =
2019-01-17 23:59 METAR KFWN 180459Z AUTO 00000KT 3/4SM -SN BR VV014 M04/M05 A3020 RMK AO2 P0001
                 T10391050 $ =
2019-01-17 23:53 METAR KFWN 180453Z AUTO 00000KT 1SM -SN BR VV017 M04/M05 A3021 RMK AO2 SLP234
                 P0001 T10391050 410111072 $ =
2019-01-17 23:45 METAR KFWN 180445Z AUTO 00000KT 1SM -SN BR VV020 M04/M06 A3021 RMK AO2 P0001
                 T10391056 $ =
2019-01-17 23:30 METAR KFWN 180430Z AUTO 00000KT 1 3/4SM -SN BR OVC028 M04/M06 A3021 RMK AO2
                 P0000 T10391056 $ =
2019-01-17 23:22 METAR KFWN 180422Z AUTO 00000KT 2SM -SN BR OVC032 M04/M06 A3022 RMK AO2 P0000
                 T10391061 $ =
2019-01-17 23:00 METAR KFWN 180400Z AUTO 00000KT 3SM -SN OVC046 M03/M06 A3022 RMK AO2 P0000
                 T10331061 $ =
2019-01-17 22:53 METAR KFWN 180353Z AUTO 00000KT 2 1/2SM -SN OVC044 M03/M07 A3022 RMK AO2 SLP238
                 P0000 T10331067 $ =
2019-01-17 22:33 METAR KFWN 180333Z AUTO 00000KT 2SM -SN OVC032 M03/M07 A3022 RMK AO2 P0000
                 T10331067 $ =
2019-01-17 21:53 METAR KFWN 180253Z AUTO 20003KT 8SM -SN OVC034 M02/M09 A3022 RMK AO2
                 UPB34E51SNB51 SLP239 P0000 60000 T10221089 58015 $ =
2019-01-17 20:53 METAR KFWN 180153Z AUTO VRB03KT 10SM BKN060 OVC075 M02/M10 A3023 RMK AO2 SLP244
                 T10221100 $ =
2019-01-17 19:53 METAR KFWN 180053Z AUTO 00000KT 10SM FEW120 M03/M11 A3025 RMK AO2 SLP251
                 T10331106 $ =
2019-01-17 18:53 METAR KFWN 172353Z AUTO 00000KT 10SM M03/M11 A3026 RMK AO2 SLP255 T10331111
                 11011 21044 $ =
2019-01-17 17:53 METAR KFWN 172253Z AUTO 00000KT 10SM CLR M03/M11 A3027 RMK AO2 SLP255 T10281111
                 =
2019-01-17 16:53 METAR KFWN 172153Z AUTO 06004KT 10SM CLR M03/M12 A3026 RMK AO2 SLP251 T10281117
                 =
2019-01-17 15:53 METAR KFWN 172053Z AUTO 06004KT 10SM FEW120 M02/M13 A3026 RMK AO2 SLP251
                 T10171133 58020 =
2019-01-17 14:53 METAR KFWN 171953Z AUTO 06003KT 10SM SCT120 M01/M13 A3028 RMK AO2 SLP260
                 T10111133 =
2019-01-17 13:53 METAR KFWN 171853Z AUTO 07004KT 10SM CLR M01/M13 A3030 RMK AO2 SLP267 T10111133
                 =
2019-01-17 12:53 METAR KFWN 171753Z AUTO 12004KT 10SM CLR M02/M15 A3032 RMK AO2 SLP271 T10171150
                 11011 21072 58027 =
2019-01-17 11:53 METAR KFWN 171653Z AUTO 09005KT 10SM CLR M02/M13 A3036 RMK AO2 SLP284 T10221128
                 =
2019-01-17 10:53 METAR KFWN 171553Z AUTO 11005KT 10SM CLR M03/M12 A3039 RMK AO2 SLP295 T10331122
                 =
2019-01-17 09:53 METAR KFWN 171453Z AUTO 00000KT 10SM CLR M05/M12 A3040 RMK AO2 SLP298 T10501122
                 51017 =
2019-01-17 08:53 METAR KFWN 171353Z AUTO 05003KT 10SM CLR M06/M12 A3038 RMK AO2 SLP294 T10611117
                 =
2019-01-17 07:53 METAR KFWN 171253Z AUTO 00000KT 10SM CLR M07/M13 A3037 RMK AO2 SLP288 T10721128
                 =
2019-01-17 06:53 METAR KFWN 171153Z AUTO VRB03KT 10SM CLR M07/M13 A3034 RMK AO2 SLP281 T10671128
                 11039 21072 53014 =
2019-01-17 05:53 METAR KFWN 171053Z AUTO 00000KT 10SM CLR M07/M13 A3033 RMK AO2 SLP276 T10671128
                 =
2019-01-17 04:53 METAR KFWN 170953Z AUTO 02005KT 10SM CLR M06/M13 A3031 RMK AO2 SLP269 T10611128
                 =
2019-01-17 03:53 METAR KFWN 170853Z AUTO 02004KT 10SM CLR M06/M13 A3030 RMK AO2 SLP266 T10611128
                 50009 =
2019-01-17 02:53 METAR KFWN 170753Z AUTO VRB04KT 10SM CLR M06/M13 A3031 RMK AO2 SLP269 T10561128
                 =

Support USWX by starting your Amazon purchase here.